Villa Rosa, Puerto Rico
Current Conditions -  °F | °C
As of 11:56 AM on Thursday 27 Nov 2014 (Local Time) from TJSJ Reporting Station
Scattered Clouds Scattered Clouds  
Wind Chill: 82°   Ceiling: Unl
Heat Index: 86°   Visibility: 10mi
Dew Point: 71°   Wind: 12mph
Humidity: 69%   Direction: 40°NE
Pressure: 29.98"   Gusts: NA
Location:  17.9849°N, 66.1175°W
Report Text: TJSJ 271556Z 04010KT 10SM FEW034 SCT046 28/22 A2998 RMK AO2 SLP152 T02780217
Loading
Personal Weather Stations






























Interactive Weather Map New forecast layout! Learn more

10-Day Weather Forecast

Advertisements
Track Severe Weather on mobile